Time;durP1;ratioP1;P1;durP2;ratioP2;P2;SDS_P1;SDS_P2;PMS_P1;PMS_P2;Temp;Humidity;BMP_temperature;BMP_pressure;BME280_temperature;BME280_humidity;BME280_pressure;Samples;Min_cycle;Max_cycle;Signal;HPM_P1;HPM_P2
2023/08/05 00:00:09;;;;;;;2.50;1.77;;;15.60;99.90;;;;;;5015540;28;20454;-82
2023/08/05 00:02:36;;;;;;;1.97;1.77;;;15.60;99.90;;;;;;5015390;28;20487;-81
2023/08/05 00:05:03;;;;;;;3.57;1.70;;;15.60;99.90;;;;;;5015348;28;20471;-81
2023/08/05 00:07:31;;;;;;;2.40;2.27;;;15.60;99.90;;;;;;5015332;28;20455;-81
2023/08/05 00:09:57;;;;;;;2.00;1.67;;;15.60;99.90;;;;;;5015356;28;20443;-82
2023/08/05 00:12:26;;;;;;;4.00;1.87;;;15.60;99.90;;;;;;5015354;28;20439;-82
2023/08/05 00:14:52;;;;;;;1.27;1.17;;;15.60;99.90;;;;;;5014881;28;20462;-81
2023/08/05 00:17:19;;;;;;;1.77;1.40;;;15.50;99.90;;;;;;5015228;28;20448;-82
2023/08/05 00:19:46;;;;;;;2.10;1.83;;;15.60;99.90;;;;;;5015097;28;20536;-81
2023/08/05 00:22:12;;;;;;;2.17;1.60;;;15.60;99.90;;;;;;5015066;28;20483;-82
2023/08/05 00:24:41;;;;;;;1.63;1.53;;;15.50;99.90;;;;;;5015048;28;20463;-82
2023/08/05 00:27:08;;;;;;;1.93;1.33;;;15.50;99.90;;;;;;5014739;28;20823;-82
2023/08/05 00:29:36;;;;;;;3.53;1.30;;;15.50;99.90;;;;;;5015084;28;20455;-82
2023/08/05 00:32:03;;;;;;;2.27;2.13;;;15.50;99.90;;;;;;5013662;28;20442;-81
2023/08/05 00:34:29;;;;;;;1.70;1.40;;;15.50;99.90;;;;;;5014582;28;20479;-82
2023/08/05 00:36:57;;;;;;;2.60;1.10;;;15.50;99.90;;;;;;5014581;28;20945;-81
2023/08/05 00:39:24;;;;;;;2.17;1.90;;;15.50;99.90;;;;;;5014890;28;20439;-81
2023/08/05 00:41:51;;;;;;;1.60;1.50;;;15.50;99.90;;;;;;5014715;28;20484;-81
2023/08/05 00:44:17;;;;;;;1.97;1.33;;;15.50;99.90;;;;;;5014713;28;20503;-81
2023/08/05 00:46:46;;;;;;;2.03;1.60;;;15.50;99.90;;;;;;5014699;28;20447;-81
2023/08/05 00:49:13;;;;;;;2.77;2.00;;;15.50;99.90;;;;;;5014593;28;20447;-82
2023/08/05 00:51:40;;;;;;;2.30;1.97;;;15.40;99.90;;;;;;5014600;28;20451;-82
2023/08/05 00:54:08;;;;;;;2.30;1.70;;;15.50;99.90;;;;;;5014475;28;20467;-82
2023/08/05 00:56:35;;;;;;;3.83;1.27;;;15.50;99.90;;;;;;5014194;28;20450;-81
2023/08/05 00:59:02;;;;;;;1.90;1.80;;;15.40;99.90;;;;;;5014482;28;20446;-81
2023/08/05 01:01:29;;;;;;;3.13;1.43;;;15.40;99.90;;;;;;5014124;28;20480;-81
2023/08/05 01:03:57;;;;;;;5.90;1.63;;;15.40;99.90;;;;;;5014337;28;20458;-82
2023/08/05 01:06:25;;;;;;;1.40;1.33;;;15.40;99.90;;;;;;5014339;28;20458;-81
2023/08/05 01:08:54;;;;;;;2.77;1.70;;;15.40;99.90;;;;;;5014315;28;20447;-82
2023/08/05 01:11:21;;;;;;;7.97;1.70;;;15.30;99.90;;;;;;5014024;28;20435;-81
2023/08/05 01:13:48;;;;;;;2.33;1.80;;;15.30;99.90;;;;;;5014130;28;20478;-81
2023/08/05 01:16:15;;;;;;;3.90;1.87;;;15.30;99.90;;;;;;5014177;28;20530;-82
2023/08/05 01:18:43;;;;;;;3.70;1.63;;;15.20;99.90;;;;;;5014153;28;20444;-81
2023/08/05 01:21:18;;;;;;;2.07;1.47;;;15.20;99.90;;;;;;5013760;28;20440;-81
2023/08/05 01:23:53;;;;;;;1.37;1.23;;;15.20;99.90;;;;;;5014051;28;20471;-81
2023/08/05 01:26:21;;;;;;;1.10;1.10;;;15.10;99.90;;;;;;5014128;28;20431;-81
2023/08/05 01:28:48;;;;;;;1.63;1.53;;;15.10;99.90;;;;;;5013669;28;20459;-81
2023/08/05 01:31:16;;;;;;;3.20;1.67;;;15.10;99.90;;;;;;5013944;28;20458;-81
2023/08/05 01:33:43;;;;;;;4.30;2.07;;;15.10;99.90;;;;;;5013846;28;20460;-81
2023/08/05 01:36:19;;;;;;;1.30;1.20;;;15.10;99.90;;;;;;5013476;28;20479;-81
2023/08/05 01:38:47;;;;;;;2.20;1.20;;;15.00;99.90;;;;;;5013931;28;20444;-81
2023/08/05 01:41:14;;;;;;;2.10;1.57;;;15.10;99.90;;;;;;5013423;28;20979;-81
2023/08/05 01:43:42;;;;;;;3.03;1.70;;;15.00;99.90;;;;;;5013414;28;20474;-82
2023/08/05 01:46:09;;;;;;;3.83;1.10;;;15.10;99.90;;;;;;5013738;28;20450;-81
2023/08/05 01:48:36;;;;;;;1.50;0.83;;;15.20;99.90;;;;;;5013498;28;20428;-82
2023/08/05 01:51:03;;;;;;;2.60;1.00;;;15.10;99.90;;;;;;5013431;28;20436;-81
2023/08/05 01:53:30;;;;;;;2.10;1.10;;;15.10;99.90;;;;;;5013619;28;20468;-81
2023/08/05 01:55:56;;;;;;;3.50;1.33;;;15.20;99.90;;;;;;5013668;28;20458;-81
2023/08/05 01:58:23;;;;;;;2.63;1.70;;;15.10;99.90;;;;;;5013576;28;20448;-82
2023/08/05 02:00:52;;;;;;;2.00;1.07;;;15.20;99.90;;;;;;5013594;28;20447;-81
2023/08/05 02:03:18;;;;;;;1.87;1.40;;;15.20;99.90;;;;;;5013150;28;20487;-81
2023/08/05 02:05:45;;;;;;;5.83;1.30;;;15.20;99.90;;;;;;5013539;28;20443;-81
2023/08/05 02:08:12;;;;;;;4.27;1.40;;;15.30;99.90;;;;;;5013492;28;20477;-81
2023/08/05 02:10:39;;;;;;;2.57;2.33;;;15.30;99.90;;;;;;5013467;28;20454;-81
2023/08/05 02:13:05;;;;;;;2.87;2.07;;;15.30;99.90;;;;;;5013437;28;20538;-81
2023/08/05 02:15:32;;;;;;;4.30;1.77;;;15.30;99.90;;;;;;5013361;28;20459;-81
2023/08/05 02:18:00;;;;;;;1.43;0.93;;;15.20;99.90;;;;;;5013191;28;20439;-81
2023/08/05 02:20:27;;;;;;;2.07;1.20;;;15.20;99.90;;;;;;5013386;28;20447;-81
2023/08/05 02:22:54;;;;;;;1.47;1.13;;;15.20;99.90;;;;;;5013140;28;20474;-80
2023/08/05 02:25:21;;;;;;;2.27;1.10;;;15.20;99.90;;;;;;5013321;28;20472;-81
2023/08/05 02:27:47;;;;;;;3.00;1.40;;;15.20;99.90;;;;;;5013056;28;20975;-81
2023/08/05 02:30:14;;;;;;;2.37;1.50;;;15.10;99.90;;;;;;5013033;28;20436;-81
2023/08/05 02:32:41;;;;;;;2.43;1.97;;;15.10;99.90;;;;;;5013341;28;20451;-81
2023/08/05 02:35:09;;;;;;;1.43;1.33;;;15.10;99.90;;;;;;5012876;28;20487;-81
2023/08/05 02:37:36;;;;;;;1.63;1.53;;;15.10;99.90;;;;;;5012987;28;20949;-81
2023/08/05 02:40:03;;;;;;;1.53;1.10;;;15.10;99.90;;;;;;5013249;28;20455;-81
2023/08/05 02:42:30;;;;;;;2.03;1.50;;;15.10;99.90;;;;;;5013198;28;20483;-81
2023/08/05 02:44:57;;;;;;;7.90;2.07;;;15.00;99.90;;;;;;5013156;28;20472;-81
2023/08/05 02:47:24;;;;;;;1.40;1.10;;;15.00;99.90;;;;;;5013157;28;20444;-81
2023/08/05 02:49:50;;;;;;;1.30;1.20;;;15.00;99.90;;;;;;5013342;28;20451;-81
2023/08/05 02:52:19;;;;;;;1.70;1.47;;;15.00;99.90;;;;;;5012877;28;20444;-81
2023/08/05 02:54:45;;;;;;;2.40;1.70;;;14.90;99.90;;;;;;5014059;28;20455;-81
2023/08/05 02:57:12;;;;;;;1.17;0.83;;;14.90;99.90;;;;;;5016783;28;20448;-81
2023/08/05 02:59:39;;;;;;;1.70;1.60;;;14.90;99.90;;;;;;5016739;28;20446;-81
2023/08/05 03:02:06;;;;;;;2.13;1.50;;;14.90;99.90;;;;;;5016602;28;20490;-81
2023/08/05 03:04:32;;;;;;;2.27;1.63;;;15.00;99.90;;;;;;5016523;28;20475;-81
2023/08/05 03:06:59;;;;;;;1.50;1.40;;;14.90;99.90;;;;;;5016263;28;20826;-81
2023/08/05 03:09:27;;;;;;;1.27;0.97;;;14.90;99.90;;;;;;5016347;28;20455;-81
2023/08/05 03:11:54;;;;;;;1.97;1.20;;;14.90;99.90;;;;;;5016487;28;20451;-81
2023/08/05 03:14:21;;;;;;;5.60;2.00;;;14.90;99.90;;;;;;5016353;28;20470;-81
2023/08/05 03:16:48;;;;;;;2.10;1.13;;;14.70;99.90;;;;;;5016413;28;20454;-81
2023/08/05 03:19:13;;;;;;;3.60;1.80;;;14.80;99.90;;;;;;5016032;28;20436;-81
2023/08/05 03:21:40;;;;;;;2.13;1.43;;;14.80;99.90;;;;;;5016255;28;20454;-81
2023/08/05 03:24:07;;;;;;;1.30;0.87;;;14.90;99.90;;;;;;5015952;28;20720;-81
2023/08/05 03:26:35;;;;;;;2.83;0.97;;;14.90;99.90;;;;;;5016203;28;20451;-81
2023/08/05 03:29:02;;;;;;;1.40;1.07;;;14.90;99.90;;;;;;5016183;28;20455;-81
2023/08/05 03:31:28;;;;;;;1.37;1.27;;;14.90;99.90;;;;;;5016147;28;20453;-81
2023/08/05 03:33:55;;;;;;;1.30;1.20;;;14.90;99.90;;;;;;5016183;28;20473;-81
2023/08/05 03:36:22;;;;;;;1.33;1.23;;;15.00;99.90;;;;;;5015616;28;20486;-81
2023/08/05 03:38:49;;;;;;;3.90;2.20;;;15.00;99.90;;;;;;5015689;28;20448;-80
2023/08/05 03:41:15;;;;;;;1.83;1.67;;;15.00;99.90;;;;;;5015978;28;20442;-81
2023/08/05 03:43:43;;;;;;;4.23;1.67;;;14.90;99.90;;;;;;5015759;28;20491;-81
2023/08/05 03:46:10;;;;;;;4.10;1.53;;;15.00;99.90;;;;;;5015584;28;20443;-81
2023/08/05 03:48:37;;;;;;;3.27;2.33;;;15.00;99.90;;;;;;5015807;28;20450;-81
2023/08/05 03:51:04;;;;;;;6.30;2.10;;;15.00;99.90;;;;;;5015714;28;20444;-81
2023/08/05 03:53:31;;;;;;;2.07;1.93;;;15.10;99.90;;;;;;5015698;28;20490;-81
2023/08/05 03:55:58;;;;;;;1.90;1.40;;;15.10;99.90;;;;;;5015677;28;20443;-81
2023/08/05 03:58:26;;;;;;;2.00;1.90;;;15.10;99.90;;;;;;5015598;28;20447;-81
2023/08/05 04:00:54;;;;;;;1.83;1.73;;;15.10;99.90;;;;;;5015297;28;20466;-81
2023/08/05 04:03:21;;;;;;;2.07;1.67;;;15.10;99.90;;;;;;5015390;28;20487;-81
2023/08/05 04:05:48;;;;;;;1.93;1.40;;;15.10;99.90;;;;;;5014985;28;20456;-81
2023/08/05 04:08:14;;;;;;;1.93;1.20;;;15.10;99.90;;;;;;5015448;28;20444;-81
2023/08/05 04:10:41;;;;;;;1.40;1.20;;;15.10;99.90;;;;;;5015128;28;20442;-81
2023/08/05 04:13:11;;;;;;;3.27;2.00;;;15.10;99.90;;;;;;5015083;28;20936;-81
2023/08/05 04:15:38;;;;;;;1.50;1.40;;;15.10;99.90;;;;;;5014981;28;20940;-81
2023/08/05 04:18:07;;;;;;;3.03;2.03;;;15.10;99.90;;;;;;5014939;28;20455;-81
2023/08/05 04:20:36;;;;;;;3.70;1.50;;;15.10;99.90;;;;;;5015206;28;20443;-80
2023/08/05 04:23:05;;;;;;;16.53;2.30;;;15.00;99.90;;;;;;5014782;28;20487;-81
2023/08/05 04:25:32;;;;;;;5.37;2.23;;;15.00;99.90;;;;;;5014762;28;20475;-81
2023/08/05 04:27:59;;;;;;;1.70;1.60;;;15.10;99.90;;;;;;5015493;28;20820;-81
2023/08/05 04:30:26;;;;;;;4.30;2.87;;;15.10;99.90;;;;;;5014778;28;20435;-81
2023/08/05 04:32:53;;;;;;;2.20;2.00;;;15.10;99.90;;;;;;5014985;28;20452;-81
2023/08/05 04:35:21;;;;;;;3.53;1.60;;;15.10;99.90;;;;;;5014533;28;20480;-81
2023/08/05 04:37:48;;;;;;;2.93;1.57;;;15.10;99.90;;;;;;5014899;28;20444;-81
2023/08/05 04:40:14;;;;;;;3.20;1.70;;;15.10;99.90;;;;;;5014818;28;20458;-81
2023/08/05 04:42:41;;;;;;;3.07;2.00;;;15.10;99.90;;;;;;5014384;28;20483;-81
2023/08/05 04:45:09;;;;;;;1.50;1.33;;;15.10;99.90;;;;;;5014708;28;20467;-80
2023/08/05 04:47:36;;;;;;;3.27;1.87;;;15.10;99.90;;;;;;5014415;28;20945;-81
2023/08/05 04:50:03;;;;;;;6.00;1.87;;;15.10;99.90;;;;;;5014606;28;20531;-81
2023/08/05 04:52:31;;;;;;;9.33;1.70;;;15.10;99.90;;;;;;5014319;28;20955;-80
2023/08/05 04:54:58;;;;;;;2.40;1.70;;;15.10;99.90;;;;;;5014247;28;21027;-80
2023/08/05 04:57:25;;;;;;;2.13;1.97;;;15.10;99.90;;;;;;5014496;28;20444;-80
2023/08/05 04:59:52;;;;;;;3.90;1.63;;;15.10;99.90;;;;;;5014485;28;20447;-81
2023/08/05 05:02:18;;;;;;;3.53;1.87;;;15.10;99.90;;;;;;5014350;28;20456;-81
2023/08/05 05:04:45;;;;;;;2.27;1.97;;;15.10;99.90;;;;;;5013998;28;20858;-81
2023/08/05 05:07:12;;;;;;;2.30;1.37;;;15.10;99.90;;;;;;5014178;28;20462;-81
2023/08/05 05:09:40;;;;;;;1.50;1.40;;;15.10;99.90;;;;;;5014420;28;20439;-82
2023/08/05 05:12:07;;;;;;;1.60;1.10;;;15.20;99.90;;;;;;5014089;28;20435;-82
2023/08/05 05:14:34;;;;;;;2.03;1.90;;;15.10;99.90;;;;;;5014079;28;20932;-81
2023/08/05 05:17:01;;;;;;;3.67;1.87;;;15.20;99.90;;;;;;5013737;28;20431;-81
2023/08/05 05:19:28;;;;;;;0.93;0.93;;;15.20;99.90;;;;;;5014244;28;20455;-81
2023/08/05 05:21:54;;;;;;;2.30;1.77;;;15.20;99.90;;;;;;5013989;28;20432;-81
2023/08/05 05:24:21;;;;;;;3.30;1.40;;;15.20;99.90;;;;;;5014101;28;20570;-81
2023/08/05 05:26:49;;;;;;;2.83;2.10;;;15.20;99.90;;;;;;5013942;28;20451;-81
2023/08/05 05:29:19;;;;;;;2.30;1.73;;;15.20;99.90;;;;;;5013944;28;20452;-81
2023/08/05 05:31:46;;;;;;;1.60;1.50;;;15.20;99.90;;;;;;5014459;28;20451;-81
2023/08/05 05:34:12;;;;;;;1.27;1.07;;;15.20;99.90;;;;;;5013405;28;20968;-80
2023/08/05 05:36:39;;;;;;;2.30;2.10;;;15.30;99.90;;;;;;5013830;28;20434;-80
2023/08/05 05:39:06;;;;;;;3.97;2.00;;;15.30;99.90;;;;;;5013582;28;20937;-79
2023/08/05 05:41:33;;;;;;;1.27;0.90;;;15.30;99.90;;;;;;5013606;28;20953;-79
2023/08/05 05:44:03;;;;;;;4.40;1.90;;;15.30;99.90;;;;;;5013373;28;20483;-79
2023/08/05 05:46:32;;;;;;;3.77;2.27;;;15.30;99.90;;;;;;5013858;28;20428;-79
2023/08/05 05:48:59;;;;;;;5.00;2.17;;;15.30;99.90;;;;;;5013547;28;20948;-80
2023/08/05 05:51:25;;;;;;;3.93;1.90;;;15.30;99.90;;;;;;5013781;28;20495;-80
2023/08/05 05:53:52;;;;;;;3.70;2.60;;;15.40;99.90;;;;;;5013308;28;21027;-80
2023/08/05 05:56:19;;;;;;;1.00;0.97;;;15.40;99.90;;;;;;5013580;28;20497;-80
2023/08/05 05:58:46;;;;;;;2.07;1.63;;;15.40;99.90;;;;;;5013469;28;20476;-80
2023/08/05 06:01:14;;;;;;;2.30;1.73;;;15.40;99.90;;;;;;5013698;28;20448;-80
2023/08/05 06:03:42;;;;;;;3.73;1.97;;;15.40;99.90;;;;;;5013534;28;20492;-80
2023/08/05 06:06:08;;;;;;;1.70;1.37;;;15.40;99.90;;;;;;5013516;28;20459;-80
2023/08/05 06:08:36;;;;;;;2.53;1.37;;;15.40;99.90;;;;;;5013632;28;20446;-80
2023/08/05 06:11:03;;;;;;;3.50;2.30;;;15.50;99.90;;;;;;5013536;28;20452;-80
2023/08/05 06:13:30;;;;;;;1.80;1.70;;;15.50;99.90;;;;;;5013110;28;20475;-80
2023/08/05 06:15:57;;;;;;;3.17;1.97;;;15.50;99.90;;;;;;5013318;28;20539;-80
2023/08/05 06:18:25;;;;;;;2.30;1.93;;;15.60;99.90;;;;;;5013181;28;20949;-80
2023/08/05 06:20:52;;;;;;;4.40;1.83;;;15.60;99.90;;;;;;5013393;28;20440;-80
2023/08/05 06:23:19;;;;;;;1.83;1.63;;;15.70;99.90;;;;;;5013246;28;20494;-81
2023/08/05 06:25:46;;;;;;;3.13;2.20;;;15.80;99.90;;;;;;5013066;28;20444;-81
2023/08/05 06:28:13;;;;;;;1.90;1.60;;;15.90;99.90;;;;;;5013394;28;20844;-81
2023/08/05 06:30:43;;;;;;;2.50;1.00;;;16.00;99.90;;;;;;5016332;28;20443;-81
2023/08/05 06:33:10;;;;;;;2.40;1.50;;;16.10;99.90;;;;;;5017283;28;20912;-81
2023/08/05 06:35:38;;;;;;;1.80;1.67;;;16.20;99.90;;;;;;5016823;28;20471;-81
2023/08/05 06:38:05;;;;;;;2.63;1.47;;;16.40;99.90;;;;;;5016970;28;20436;-81
2023/08/05 06:40:32;;;;;;;4.10;1.70;;;16.50;99.90;;;;;;5017316;28;20451;-81
2023/08/05 06:42:59;;;;;;;3.00;1.70;;;16.50;99.90;;;;;;5017461;28;20448;-81
2023/08/05 06:45:26;;;;;;;1.83;1.57;;;16.60;99.90;;;;;;5016929;28;20467;-81
2023/08/05 06:47:52;;;;;;;7.40;1.93;;;16.70;99.90;;;;;;5017020;28;20447;-81
2023/08/05 06:50:19;;;;;;;5.63;2.20;;;16.80;99.90;;;;;;5016616;28;20810;-81
2023/08/05 06:52:47;;;;;;;1.90;1.43;;;16.90;99.90;;;;;;5016596;28;20439;-81
2023/08/05 06:55:17;;;;;;;2.50;1.50;;;17.00;99.90;;;;;;5016780;28;20463;-81
2023/08/05 06:57:45;;;;;;;2.13;1.93;;;17.10;99.90;;;;;;5016809;28;20455;-81
2023/08/05 07:00:12;;;;;;;1.73;1.50;;;17.20;99.90;;;;;;5016700;28;20508;-81
2023/08/05 07:02:39;;;;;;;1.50;1.40;;;17.20;99.90;;;;;;5016436;28;20436;-81
2023/08/05 07:05:06;;;;;;;2.33;1.80;;;17.30;99.90;;;;;;5016493;28;20494;-81
2023/08/05 07:07:33;;;;;;;1.57;1.23;;;17.30;99.90;;;;;;5017258;28;20451;-81
2023/08/05 07:10:07;;;;;;;2.20;1.47;;;17.40;99.90;;;;;;5016311;28;20948;-81
2023/08/05 07:12:34;;;;;;;1.27;1.17;;;17.40;99.90;;;;;;5016555;28;20428;-81
2023/08/05 07:15:01;;;;;;;2.43;2.23;;;17.50;99.90;;;;;;5016228;28;20455;-81
2023/08/05 07:17:27;;;;;;;5.17;1.90;;;17.70;99.90;;;;;;5016291;28;20451;-80
2023/08/05 07:19:54;;;;;;;1.93;1.40;;;17.80;99.90;;;;;;5016390;28;20448;-80
2023/08/05 07:22:21;;;;;;;1.53;1.17;;;18.00;99.90;;;;;;5016420;28;20475;-80
2023/08/05 07:24:48;;;;;;;3.10;2.13;;;18.00;99.90;;;;;;5015794;28;20486;-80
2023/08/05 07:27:16;;;;;;;1.87;1.60;;;18.00;99.90;;;;;;5016191;28;20443;-80
2023/08/05 07:29:43;;;;;;;1.60;1.50;;;18.10;99.90;;;;;;5016136;28;20471;-81
2023/08/05 07:32:10;;;;;;;2.07;1.70;;;18.10;99.90;;;;;;5016232;28;20518;-81
2023/08/05 07:34:37;;;;;;;2.23;1.30;;;18.10;99.90;;;;;;5015589;28;20494;-81
2023/08/05 07:37:05;;;;;;;2.07;1.27;;;18.00;99.90;;;;;;5016119;28;20438;-81
2023/08/05 07:39:34;;;;;;;1.40;1.17;;;18.00;99.90;;;;;;5016095;28;20494;-81
2023/08/05 07:42:02;;;;;;;2.73;1.77;;;18.10;99.90;;;;;;5015529;28;20439;-81
2023/08/05 07:44:31;;;;;;;1.70;1.60;;;18.10;99.90;;;;;;5015844;28;20574;-81
2023/08/05 07:46:58;;;;;;;1.20;1.10;;;18.20;99.90;;;;;;5016007;28;20431;-81
2023/08/05 07:49:25;;;;;;;1.47;1.00;;;18.20;99.90;;;;;;5015891;28;20454;-81
2023/08/05 07:51:53;;;;;;;3.70;1.40;;;18.40;99.90;;;;;;5015874;28;20456;-81
2023/08/05 07:54:20;;;;;;;1.40;1.30;;;18.50;99.90;;;;;;5015707;28;20478;-82
2023/08/05 07:56:48;;;;;;;1.63;0.87;;;18.60;99.90;;;;;;5015681;28;20451;-82
2023/08/05 07:59:19;;;;;;;2.93;1.50;;;18.80;99.90;;;;;;5015755;28;20452;-82
2023/08/05 08:01:48;;;;;;;1.43;1.33;;;18.80;99.90;;;;;;5015432;28;20436;-81
2023/08/05 08:04:15;;;;;;;1.40;1.30;;;18.80;99.90;;;;;;5015531;28;20483;-81
2023/08/05 08:06:43;;;;;;;1.63;1.10;;;18.90;99.90;;;;;;5015145;28;20450;-81
2023/08/05 08:09:10;;;;;;;2.10;0.90;;;18.80;99.90;;;;;;5015449;28;20807;-81
2023/08/05 08:11:37;;;;;;;1.87;1.20;;;18.90;99.90;;;;;;5016531;28;20451;-81
2023/08/05 08:14:04;;;;;;;1.63;1.07;;;19.00;99.90;;;;;;5015926;28;20470;-81
2023/08/05 08:16:31;;;;;;;1.47;1.37;;;18.80;99.90;;;;;;5015123;28;20961;-81
2023/08/05 08:18:59;;;;;;;1.77;1.33;;;18.90;99.90;;;;;;5015567;28;20455;-81
2023/08/05 08:21:26;;;;;;;3.70;1.30;;;18.90;99.90;;;;;;5015746;28;20502;-81
2023/08/05 08:23:53;;;;;;;1.40;1.30;;;19.00;99.90;;;;;;5015430;28;20496;-81
2023/08/05 08:26:20;;;;;;;1.43;1.10;;;19.00;99.90;;;;;;5016125;28;20444;-81
2023/08/05 08:28:46;;;;;;;1.67;1.03;;;19.10;99.90;;;;;;5015391;28;20458;-81
2023/08/05 08:31:13;;;;;;;1.30;1.20;;;19.20;99.90;;;;;;5015199;28;20933;-81
2023/08/05 08:33:40;;;;;;;3.70;0.80;;;19.30;99.90;;;;;;5015097;28;20463;-81
2023/08/05 08:36:08;;;;;;;2.00;1.20;;;19.40;99.90;;;;;;5014792;28;20479;-80
2023/08/05 08:38:35;;;;;;;1.87;1.73;;;19.50;99.90;;;;;;5015510;28;20451;-81
2023/08/05 08:41:03;;;;;;;1.60;1.27;;;19.70;99.90;;;;;;5015086;28;20451;-81
2023/08/05 08:43:31;;;;;;;1.83;1.73;;;19.90;99.90;;;;;;5014654;28;20554;-81
2023/08/05 08:45:59;;;;;;;1.03;1.03;;;20.00;99.90;;;;;;5014887;28;20816;-81
2023/08/05 08:48:26;;;;;;;0.90;0.90;;;20.20;99.90;;;;;;5014926;28;20450;-81
2023/08/05 08:50:54;;;;;;;1.13;1.13;;;20.20;99.90;;;;;;5014811;28;20817;-81
2023/08/05 08:53:22;;;;;;;2.70;1.53;;;20.30;99.90;;;;;;5013717;28;20449;-81
2023/08/05 08:55:53;;;;;;;0.90;0.90;;;20.40;99.90;;;;;;5014771;28;20501;-82
2023/08/05 08:58:20;;;;;;;1.67;1.57;;;20.50;99.90;;;;;;5014731;28;20438;-81
2023/08/05 09:00:48;;;;;;;0.93;0.93;;;20.40;99.90;;;;;;5014674;28;20458;-81
2023/08/05 09:03:15;;;;;;;0.83;0.83;;;20.50;99.90;;;;;;5014583;28;20824;-81
2023/08/05 09:05:45;;;;;;;0.80;0.70;;;20.50;99.90;;;;;;5014162;28;20529;-81
2023/08/05 09:08:12;;;;;;;0.90;0.77;;;20.60;99.90;;;;;;5015357;28;20432;-81
2023/08/05 09:10:40;;;;;;;0.90;0.60;;;20.70;99.90;;;;;;5014536;28;20454;-81
2023/08/05 09:13:08;;;;;;;0.73;0.73;;;20.80;99.90;;;;;;5014158;28;20446;-81
2023/08/05 09:15:37;;;;;;;0.90;0.80;;;20.80;99.90;;;;;;5014547;28;20455;-81
2023/08/05 09:18:04;;;;;;;0.77;0.77;;;21.00;99.90;;;;;;5014189;28;20804;-81
2023/08/05 09:20:32;;;;;;;0.73;0.70;;;21.10;99.90;;;;;;5013988;28;20956;-81
2023/08/05 09:23:01;;;;;;;1.43;0.77;;;21.40;99.90;;;;;;5014295;28;20466;-81
2023/08/05 09:25:29;;;;;;;1.87;1.10;;;21.30;99.90;;;;;;5014084;28;20498;-81
2023/08/05 09:28:00;;;;;;;1.00;1.00;;;21.40;99.90;;;;;;5014190;28;20427;-81
2023/08/05 09:30:27;;;;;;;0.90;0.80;;;21.60;99.90;;;;;;5014011;28;20979;-81
2023/08/05 09:32:54;;;;;;;1.93;0.90;;;21.70;99.90;;;;;;5014164;28;20451;-81
2023/08/05 09:35:22;;;;;;;1.23;1.13;;;21.80;99.90;;;;;;5013669;28;20486;-81
2023/08/05 09:37:49;;;;;;;1.23;1.10;;;21.90;99.90;;;;;;5013723;28;21015;-80
2023/08/05 09:40:18;;;;;;;0.60;0.60;;;22.00;99.90;;;;;;5013685;28;20534;-81
2023/08/05 09:42:52;;;;;;;6.87;1.67;;;22.10;99.90;;;;;;5013982;28;20864;-79
2023/08/05 09:45:22;;;;;;;0.80;0.70;;;21.90;99.90;;;;;;5013888;28;20597;-80
2023/08/05 09:47:50;;;;;;;1.40;0.90;;;21.70;99.90;;;;;;5013661;28;20828;-80
2023/08/05 09:50:18;;;;;;;1.03;0.80;;;21.50;99.90;;;;;;5013934;28;20451;-80
2023/08/05 09:52:49;;;;;;;1.20;0.83;;;21.20;99.90;;;;;;5013618;28;20562;-86
2023/08/05 09:55:18;;;;;;;1.73;0.77;;;21.00;99.90;;;;;;5013706;28;20525;-81
2023/08/05 09:57:46;;;;;;;1.57;0.90;;;20.80;99.90;;;;;;5013651;28;20458;-81
2023/08/05 10:00:15;;;;;;;1.23;0.90;;;20.50;99.90;;;;;;5013388;28;20857;-81
2023/08/05 10:02:44;;;;;;;0.93;0.80;;;20.40;99.90;;;;;;5013658;28;20459;-80
2023/08/05 10:05:12;;;;;;;0.83;0.83;;;20.30;99.90;;;;;;5012961;28;20991;-81
2023/08/05 10:07:40;;;;;;;0.70;0.70;;;20.30;99.90;;;;;;5013553;28;20451;-81
2023/08/05 10:10:11;;;;;;;1.10;1.00;;;20.20;99.90;;;;;;5013223;28;20962;-81
2023/08/05 10:12:42;;;;;;;0.80;0.73;;;20.20;99.90;;;;;;5013557;28;20435;-81
2023/08/05 10:15:14;;;;;;;1.70;0.83;;;20.20;99.90;;;;;;5013686;28;20829;-81
2023/08/05 10:17:41;;;;;;;2.00;1.10;;;20.30;99.90;;;;;;5013761;28;20424;-81
2023/08/05 10:20:13;;;;;;;1.43;0.90;;;20.60;99.90;;;;;;5013720;28;20447;-80
2023/08/05 10:22:40;;;;;;;1.33;0.80;;;20.70;99.90;;;;;;5013491;28;20423;-80
2023/08/05 10:25:07;;;;;;;1.37;1.10;;;20.70;99.90;;;;;;5013101;28;20470;-80
2023/08/05 10:27:39;;;;;;;1.20;0.83;;;20.80;99.90;;;;;;5013358;28;20454;-80
2023/08/05 10:30:10;;;;;;;1.63;0.70;;;20.70;99.90;;;;;;5013383;28;20431;-80
2023/08/05 10:32:50;;;;;;;2.80;0.97;;;20.80;99.90;;;;;;5013417;28;20436;-81
2023/08/05 10:35:31;;;;;;;1.03;0.93;;;20.80;99.90;;;;;;5012862;28;20479;-81
2023/08/05 10:38:16;;;;;;;1.43;1.03;;;20.90;99.90;;;;;;5013229;28;20439;-80
2023/08/05 10:40:48;;;;;;;1.70;0.90;;;21.00;99.90;;;;;;5013009;28;20431;-80
2023/08/05 10:43:35;;;;;;;0.60;0.60;;;21.10;99.90;;;;;;5013055;28;20426;-80
2023/08/05 10:46:02;;;;;;;2.30;1.00;;;21.10;99.90;;;;;;5013787;28;20487;-80
2023/08/05 10:48:30;;;;;;;1.10;0.90;;;21.10;99.90;;;;;;5013151;28;20534;-81
2023/08/05 10:50:59;;;;;;;2.80;1.50;;;21.00;99.90;;;;;;5012949;28;20443;-81
2023/08/05 10:53:26;;;;;;;1.40;0.90;;;20.90;99.90;;;;;;5013112;28;20443;-80
2023/08/05 10:55:56;;;;;;;2.10;1.13;;;20.70;99.90;;;;;;5013136;28;20446;-81
2023/08/05 10:58:24;;;;;;;1.37;1.27;;;20.60;99.90;;;;;;5012877;28;20809;-80
2023/08/05 11:00:58;;;;;;;1.17;1.07;;;20.60;99.90;;;;;;5013064;28;20454;-80
2023/08/05 11:03:33;;;;;;;1.97;1.07;;;20.40;99.90;;;;;;5012710;28;20442;-81
2023/08/05 11:06:05;;;;;;;1.83;0.90;;;20.30;99.90;;;;;;5012720;28;20470;-80
2023/08/05 11:08:33;;;;;;;1.03;1.03;;;20.30;99.90;;;;;;5013207;28;20448;-81
2023/08/05 11:11:04;;;;;;;0.70;0.70;;;20.30;99.90;;;;;;5012743;28;20447;-81
2023/08/05 11:13:35;;;;;;;2.27;1.10;;;20.30;99.90;;;;;;5012745;28;20470;-80
2023/08/05 11:16:04;;;;;;;1.00;1.00;;;20.40;99.90;;;;;;5014278;28;20955;-80
2023/08/05 11:18:31;;;;;;;1.13;1.03;;;20.50;99.90;;;;;;5016480;28;20445;-81
2023/08/05 11:21:00;;;;;;;1.10;1.10;;;20.50;99.90;;;;;;5016421;28;20513;-80
2023/08/05 11:23:29;;;;;;;1.43;1.00;;;20.50;99.90;;;;;;5016306;28;20454;-82
2023/08/05 11:25:58;;;;;;;1.50;1.40;;;20.60;99.90;;;;;;5016163;28;21023;-80
2023/08/05 11:28:25;;;;;;;1.27;1.00;;;20.60;99.90;;;;;;5016407;28;20420;-80
2023/08/05 11:30:53;;;;;;;1.63;1.27;;;20.60;99.90;;;;;;5016258;28;20450;-80
2023/08/05 11:33:20;;;;;;;0.80;0.80;;;20.60;99.90;;;;;;5016123;28;20447;-80
2023/08/05 11:35:49;;;;;;;1.60;1.27;;;20.60;99.90;;;;;;5015641;28;20991;-80
2023/08/05 11:38:17;;;;;;;1.60;1.50;;;20.70;99.90;;;;;;5016098;28;20454;-79
2023/08/05 11:40:48;;;;;;;1.07;0.83;;;20.70;99.90;;;;;;5016074;28;20455;-80
2023/08/05 11:43:15;;;;;;;1.07;0.77;;;20.70;99.90;;;;;;5015977;28;20411;-80
2023/08/05 11:45:42;;;;;;;0.80;0.77;;;20.70;99.90;;;;;;5015666;28;20486;-80
2023/08/05 11:48:18;;;;;;;1.10;0.97;;;20.50;99.90;;;;;;5015927;28;20450;-80
2023/08/05 11:50:45;;;;;;;2.03;0.87;;;20.50;99.90;;;;;;5015597;28;20904;-80
2023/08/05 11:53:12;;;;;;;0.70;0.70;;;20.40;99.90;;;;;;5015755;28;20462;-80
2023/08/05 11:55:42;;;;;;;1.43;1.30;;;20.30;99.90;;;;;;5015560;28;20438;-80
2023/08/05 11:58:10;;;;;;;1.07;0.97;;;20.30;99.90;;;;;;5015435;28;20451;-80
2023/08/05 12:00:37;;;;;;;1.20;1.10;;;20.30;99.90;;;;;;5015406;28;20940;-80
2023/08/05 12:03:05;;;;;;;0.80;0.70;;;20.20;99.90;;;;;;5015366;28;21014;-80
2023/08/05 12:05:32;;;;;;;1.07;0.97;;;20.20;99.90;;;;;;5015467;28;20482;-80
2023/08/05 12:07:59;;;;;;;2.07;1.40;;;20.10;99.90;;;;;;5015604;28;20424;-80
2023/08/05 12:10:27;;;;;;;1.30;1.20;;;20.10;99.90;;;;;;5015113;28;20819;-80
2023/08/05 12:12:55;;;;;;;1.47;1.37;;;20.00;99.90;;;;;;5015406;28;20450;-80
2023/08/05 12:15:26;;;;;;;1.30;1.20;;;20.00;99.90;;;;;;5014931;28;20474;-80
2023/08/05 12:17:54;;;;;;;0.97;0.90;;;19.90;99.90;;;;;;5015004;28;20534;-80
2023/08/05 12:20:22;;;;;;;1.77;0.90;;;19.80;99.90;;;;;;5014984;28;20435;-79
2023/08/05 12:22:49;;;;;;;2.50;1.50;;;19.80;99.90;;;;;;5015221;28;20447;-80
2023/08/05 12:25:17;;;;;;;2.40;0.90;;;19.80;99.90;;;;;;5015005;28;20495;-80
2023/08/05 12:27:44;;;;;;;1.03;1.03;;;19.70;99.90;;;;;;5015124;28;20454;-80
2023/08/05 12:30:11;;;;;;;1.10;0.93;;;19.70;99.90;;;;;;5014952;28;20518;-80
2023/08/05 12:32:40;;;;;;;0.80;0.80;;;19.60;99.90;;;;;;5014897;28;21184;-80
2023/08/05 12:35:08;;;;;;;1.70;1.00;;;19.60;99.90;;;;;;5014673;28;20482;-80
2023/08/05 12:37:36;;;;;;;1.20;1.10;;;19.60;99.90;;;;;;5014661;28;20929;-80
2023/08/05 12:40:03;;;;;;;2.50;1.20;;;19.60;99.90;;;;;;5015297;28;20463;-80
2023/08/05 12:42:30;;;;;;;5.80;1.63;;;19.60;99.90;;;;;;5014887;28;20439;-80
2023/08/05 12:44:59;;;;;;;2.03;1.40;;;19.70;99.90;;;;;;5014718;28;20487;-80
2023/08/05 12:47:26;;;;;;;2.60;1.13;;;19.70;99.90;;;;;;5014484;28;20993;-80
2023/08/05 12:49:54;;;;;;;2.10;1.30;;;19.80;99.90;;;;;;5014683;28;20972;-80